Time,TemperatureF,DewpointF,PressureIn,WindDirection,WindDirectionDegrees,WindSpeedMPH,WindSpeedGustMPH,Humidity,HourlyPrecipIn,Conditions,Clouds,dailyrainin,SoftwareType,DateUTC
2013-04-20 00:01:00,29.7,21.2,30.03,NNW,338,0.0,0.4,70,0.00,,,0.00,WUHU216HW,2013-04-20 05:01:00,
2013-04-20 00:06:00,29.5,21.0,30.03,NNW,338,0.0,0.4,70,0.00,,,0.00,WUHU216HW,2013-04-20 05:06:00,
2013-04-20 00:11:00,29.5,21.6,30.03,NNW,338,0.0,0.0,72,0.00,,,0.00,WUHU216HW,2013-04-20 05:11:00,
2013-04-20 00:16:00,29.7,21.8,30.03,NNW,338,0.0,0.0,72,0.00,,,0.00,WUHU216HW,2013-04-20 05:16:00,
2013-04-20 00:21:00,29.9,22.0,30.03,NNW,338,0.0,0.0,72,0.00,,,0.00,WUHU216HW,2013-04-20 05:21:00,
2013-04-20 00:26:00,29.9,22.0,30.03,NNW,338,0.0,0.0,72,0.00,,,0.00,WUHU216HW,2013-04-20 05:26:00,
2013-04-20 00:31:00,29.9,22.0,30.04,NNW,338,0.0,0.0,72,0.00,,,0.00,WUHU216HW,2013-04-20 05:31:00,
2013-04-20 00:36:00,29.5,21.2,30.04,NNW,338,0.0,0.0,71,0.00,,,0.00,WUHU216HW,2013-04-20 05:36:00,
2013-04-20 00:41:00,29.0,20.8,30.04,NNW,338,0.0,0.0,71,0.00,,,0.00,WUHU216HW,2013-04-20 05:41:00,
2013-04-20 00:46:00,28.4,20.3,30.04,NNW,338,0.0,0.0,71,0.00,,,0.00,WUHU216HW,2013-04-20 05:46:00,
2013-04-20 00:51:00,28.4,20.6,30.04,NNW,338,0.0,0.0,72,0.00,,,0.00,WUHU216HW,2013-04-20 05:51:00,
2013-04-20 00:56:00,28.4,20.6,30.04,NNW,338,0.0,0.0,72,0.00,,,0.00,WUHU216HW,2013-04-20 05:56:00,
2013-04-20 01:01:00,28.1,20.3,30.04,NNW,338,0.0,0.0,72,0.00,,,0.00,WUHU216HW,2013-04-20 06:01:00,
2013-04-20 01:06:00,27.5,19.7,30.04,NNW,338,0.0,0.0,72,0.00,,,0.00,WUHU216HW,2013-04-20 06:06:00,
2013-04-20 01:11:00,27.0,19.2,30.04,West,270,0.4,0.7,72,0.00,,,0.00,WUHU216HW,2013-04-20 06:11:00,
2013-04-20 01:16:00,26.8,19.0,30.04,West,270,0.4,1.3,72,0.00,,,0.00,WUHU216HW,2013-04-20 06:16:00,
2013-04-20 01:21:00,26.8,19.0,30.04,West,270,0.0,1.3,72,0.00,,,0.00,WUHU216HW,2013-04-20 06:21:00,
2013-04-20 01:26:00,26.8,19.0,30.04,West,270,0.0,0.7,72,0.00,,,0.00,WUHU216HW,2013-04-20 06:26:00,
2013-04-20 01:31:00,26.6,19.1,30.04,West,270,0.0,0.4,73,0.00,,,0.00,WUHU216HW,2013-04-20 06:31:00,
2013-04-20 01:36:00,26.3,18.7,30.04,West,270,1.1,1.1,73,0.00,,,0.00,WUHU216HW,2013-04-20 06:36:00,
2013-04-20 01:41:00,26.3,19.1,30.04,West,270,0.0,1.3,74,0.00,,,0.00,WUHU216HW,2013-04-20 06:41:00,
2013-04-20 01:46:00,26.8,19.9,30.04,West,270,0.0,1.3,75,0.00,,,0.00,WUHU216HW,2013-04-20 06:46:00,
2013-04-20 01:51:00,27.0,20.1,30.04,West,270,0.0,0.4,75,0.00,,,0.00,WUHU216HW,2013-04-20 06:51:00,
2013-04-20 01:56:00,27.0,20.1,30.04,West,270,0.0,0.4,75,0.00,,,0.00,WUHU216HW,2013-04-20 06:56:00,
2013-04-20 02:01:00,27.0,20.1,30.04,West,270,0.0,0.2,75,0.00,,,0.00,WUHU216HW,2013-04-20 07:01:00,
2013-04-20 02:06:00,26.8,19.9,30.05,West,270,0.0,0.0,75,0.00,,,0.00,WUHU216HW,2013-04-20 07:06:00,
2013-04-20 02:11:00,26.5,19.5,30.05,West,270,0.0,0.0,75,0.00,,,0.00,WUHU216HW,2013-04-20 07:11:00,
2013-04-20 02:16:00,26.3,19.4,30.05,West,270,0.0,0.0,75,0.00,,,0.00,WUHU216HW,2013-04-20 07:16:00,
2013-04-20 02:21:00,25.6,18.7,30.05,West,270,0.0,0.0,75,0.00,,,0.00,WUHU216HW,2013-04-20 07:21:00,
2013-04-20 02:26:00,25.4,18.6,30.05,West,270,0.0,0.0,75,0.00,,,0.00,WUHU216HW,2013-04-20 07:26:00,
2013-04-20 02:31:00,25.2,18.4,30.05,West,270,0.4,0.9,75,0.00,,,0.00,WUHU216HW,2013-04-20 07:31:00,
2013-04-20 02:36:00,25.4,18.6,30.06,West,270,0.0,0.9,75,0.00,,,0.00,WUHU216HW,2013-04-20 07:36:00,
2013-04-20 02:41:00,25.6,18.7,30.06,West,270,0.0,0.4,75,0.00,,,0.00,WUHU216HW,2013-04-20 07:41:00,
2013-04-20 02:46:00,26.1,19.2,30.06,West,270,0.0,0.0,75,0.00,,,0.00,WUHU216HW,2013-04-20 07:46:00,
2013-04-20 02:51:00,26.3,19.4,30.06,West,270,0.0,0.0,75,0.00,,,0.00,WUHU216HW,2013-04-20 07:51:00,
2013-04-20 02:56:00,26.1,19.2,30.05,West,270,0.4,0.4,75,0.00,,,0.00,WUHU216HW,2013-04-20 07:56:00,
2013-04-20 03:02:00,25.9,19.0,30.05,WNW,293,0.4,0.7,75,0.00,,,0.00,WUHU216HW,2013-04-20 08:02:00,
2013-04-20 03:07:00,25.7,18.8,30.05,WNW,293,0.2,0.7,75,0.00,,,0.00,WUHU216HW,2013-04-20 08:07:00,
2013-04-20 03:12:00,25.9,19.0,30.05,WNW,293,0.0,0.4,75,0.00,,,0.00,WUHU216HW,2013-04-20 08:12:00,
2013-04-20 03:17:00,25.9,19.0,30.05,WNW,293,0.0,0.4,75,0.00,,,0.00,WUHU216HW,2013-04-20 08:17:00,
2013-04-20 03:22:00,25.6,18.7,30.06,WNW,293,0.4,0.4,75,0.00,,,0.00,WUHU216HW,2013-04-20 08:22:00,
2013-04-20 03:27:00,25.4,18.8,30.06,WNW,293,0.2,0.4,76,0.00,,,0.00,WUHU216HW,2013-04-20 08:27:00,
2013-04-20 03:32:00,25.2,18.4,30.06,WNW,293,0.0,0.4,75,0.00,,,0.00,WUHU216HW,2013-04-20 08:32:00,
2013-04-20 03:37:00,25.6,19.0,30.06,WNW,293,0.0,0.4,76,0.00,,,0.00,WUHU216HW,2013-04-20 08:37:00,
2013-04-20 03:42:00,25.4,18.8,30.06,WNW,293,0.0,0.0,76,0.00,,,0.00,WUHU216HW,2013-04-20 08:42:00,
2013-04-20 03:47:00,24.8,18.4,30.06,WNW,293,0.0,0.0,76,0.00,,,0.00,WUHU216HW,2013-04-20 08:47:00,
2013-04-20 03:52:00,24.8,18.0,30.06,WNW,293,0.0,0.0,75,0.00,,,0.00,WUHU216HW,2013-04-20 08:52:00,
2013-04-20 03:57:00,24.8,18.0,30.06,WNW,293,0.0,0.7,75,0.00,,,0.00,WUHU216HW,2013-04-20 08:57:00,
2013-04-20 04:02:00,24.8,18.4,30.06,WNW,293,0.2,0.9,76,0.00,,,0.00,WUHU216HW,2013-04-20 09:02:00,
2013-04-20 04:07:00,24.7,18.2,30.06,WNW,293,0.4,0.9,76,0.00,,,0.00,WUHU216HW,2013-04-20 09:07:00,
2013-04-20 04:12:00,24.7,18.2,30.06,North,0,0.2,1.3,76,0.00,,,0.00,WUHU216HW,2013-04-20 09:12:00,
2013-04-20 04:17:00,24.5,17.6,30.06,North,0,0.4,1.3,75,0.00,,,0.00,WUHU216HW,2013-04-20 09:17:00,
2013-04-20 04:22:00,24.5,17.6,30.06,NNW,338,0.9,0.9,75,0.00,,,0.00,WUHU216HW,2013-04-20 09:22:00,
2013-04-20 04:27:00,24.7,17.8,30.07,NW,315,0.0,1.1,75,0.00,,,0.00,WUHU216HW,2013-04-20 09:27:00,
2013-04-20 04:32:00,24.8,18.0,30.07,NW,315,0.4,1.1,75,0.00,,,0.00,WUHU216HW,2013-04-20 09:32:00,
2013-04-20 04:37:00,25.0,18.2,30.07,WNW,293,0.0,1.3,75,0.00,,,0.00,WUHU216HW,2013-04-20 09:37:00,
2013-04-20 04:42:00,25.2,18.6,30.07,WNW,293,0.4,1.3,76,0.00,,,0.00,WUHU216HW,2013-04-20 09:42:00,
2013-04-20 04:47:00,24.8,18.4,30.07,WNW,293,0.0,0.7,76,0.00,,,0.00,WUHU216HW,2013-04-20 09:47:00,
2013-04-20 04:52:00,24.7,17.8,30.07,WNW,293,0.0,0.0,75,0.00,,,0.00,WUHU216HW,2013-04-20 09:52:00,
2013-04-20 04:57:00,24.8,18.4,30.07,WNW,293,0.0,0.0,76,0.00,,,0.00,WUHU216HW,2013-04-20 09:57:00,
2013-04-20 05:02:00,24.5,18.0,30.08,WNW,293,0.0,0.0,76,0.00,,,0.00,WUHU216HW,2013-04-20 10:02:00,
2013-04-20 05:07:00,24.1,17.7,30.08,NNW,338,0.4,1.1,76,0.00,,,0.00,WUHU216HW,2013-04-20 10:07:00,
2013-04-20 05:12:00,24.1,17.7,30.08,NNW,338,0.0,1.1,76,0.00,,,0.00,WUHU216HW,2013-04-20 10:12:00,
2013-04-20 05:17:00,23.9,17.5,30.08,NNW,338,0.0,1.1,76,0.00,,,0.00,WUHU216HW,2013-04-20 10:17:00,
2013-04-20 05:22:00,23.6,17.1,30.08,NNW,338,0.0,0.4,76,0.00,,,0.00,WUHU216HW,2013-04-20 10:22:00,
2013-04-20 05:27:00,23.4,17.3,30.09,NNW,338,0.0,0.0,77,0.00,,,0.00,WUHU216HW,2013-04-20 10:27:00,
2013-04-20 05:32:00,22.9,16.8,30.09,NW,315,0.4,1.6,77,0.00,,,0.00,WUHU216HW,2013-04-20 10:32:00,
2013-04-20 05:37:00,22.5,16.4,30.09,NW,315,0.0,1.6,77,0.00,,,0.00,WUHU216HW,2013-04-20 10:37:00,
2013-04-20 05:42:00,22.9,16.4,30.09,NW,315,0.0,0.7,76,0.00,,,0.00,WUHU216HW,2013-04-20 10:42:00,
2013-04-20 05:47:00,23.4,16.7,30.09,NW,315,0.0,0.7,75,0.00,,,0.00,WUHU216HW,2013-04-20 10:47:00,
2013-04-20 05:52:00,23.9,16.8,30.09,NW,315,0.0,0.9,74,0.00,,,0.00,WUHU216HW,2013-04-20 10:52:00,
2013-04-20 05:57:00,23.8,17.0,30.09,NW,315,0.0,0.9,75,0.00,,,0.00,WUHU216HW,2013-04-20 10:57:00,
2013-04-20 06:02:00,23.2,16.7,30.09,NW,315,0.0,0.4,76,0.00,,,0.00,WUHU216HW,2013-04-20 11:02:00,
2013-04-20 06:07:00,23.2,16.5,30.09,NW,315,0.0,0.4,75,0.00,,,0.00,WUHU216HW,2013-04-20 11:07:00,
2013-04-20 06:12:00,23.4,16.9,30.09,NW,315,0.0,0.4,76,0.00,,,0.00,WUHU216HW,2013-04-20 11:12:00,
2013-04-20 06:17:00,23.0,16.6,30.09,NW,315,0.0,0.0,76,0.00,,,0.00,WUHU216HW,2013-04-20 11:17:00,
2013-04-20 06:22:00,22.7,16.2,30.09,NNW,338,1.1,1.1,76,0.00,,,0.00,WUHU216HW,2013-04-20 11:22:00,
2013-04-20 06:27:00,22.9,16.1,30.09,NNW,338,0.0,1.1,75,0.00,,,0.00,WUHU216HW,2013-04-20 11:27:00,
2013-04-20 06:32:00,23.2,16.5,30.10,NNW,338,0.4,1.1,75,0.00,,,0.00,WUHU216HW,2013-04-20 11:32:00,
2013-04-20 06:37:00,23.6,16.8,30.11,NNW,338,0.7,1.1,75,0.00,,,0.00,WUHU216HW,2013-04-20 11:37:00,
2013-04-20 06:42:00,24.1,17.0,30.10,NNW,338,0.2,0.7,74,0.00,,,0.00,WUHU216HW,2013-04-20 11:42:00,
2013-04-20 06:47:00,24.1,17.7,30.10,NNW,338,0.9,1.1,76,0.00,,,0.00,WUHU216HW,2013-04-20 11:47:00,
2013-04-20 06:52:00,23.8,17.3,30.10,North,0,0.0,1.1,76,0.00,,,0.00,WUHU216HW,2013-04-20 11:52:00,
2013-04-20 06:57:00,24.5,17.6,30.11,North,0,0.4,1.1,75,0.00,,,0.00,WUHU216HW,2013-04-20 11:57:00,
2013-04-20 07:02:00,26.3,19.1,30.11,North,0,0.4,0.7,74,0.00,,,0.00,WUHU216HW,2013-04-20 12:02:00,
2013-04-20 07:07:00,28.1,21.2,30.11,North,0,0.2,0.4,75,0.00,,,0.00,WUHU216HW,2013-04-20 12:07:00,
2013-04-20 07:12:00,27.9,21.0,30.11,North,0,0.0,0.9,75,0.00,,,0.00,WUHU216HW,2013-04-20 12:12:00,
2013-04-20 07:17:00,28.4,21.5,30.11,North,0,0.0,0.9,75,0.00,,,0.00,WUHU216HW,2013-04-20 12:17:00,
2013-04-20 07:22:00,30.1,23.0,30.12,North,0,0.0,0.0,75,0.00,,,0.00,WUHU216HW,2013-04-20 12:22:00,
2013-04-20 07:27:00,33.1,25.7,30.12,North,0,0.0,0.0,74,0.00,,,0.00,WUHU216HW,2013-04-20 12:27:00,
2013-04-20 07:32:00,35.6,28.1,30.12,North,0,0.0,0.0,74,0.00,,,0.00,WUHU216HW,2013-04-20 12:32:00,
2013-04-20 07:37:00,36.4,28.5,30.13,North,0,0.4,0.7,73,0.00,,,0.00,WUHU216HW,2013-04-20 12:37:00,
2013-04-20 07:42:00,37.4,29.9,30.13,North,0,0.4,1.1,74,0.00,,,0.00,WUHU216HW,2013-04-20 12:42:00,
2013-04-20 07:47:00,37.3,29.1,30.13,East,90,1.1,1.1,72,0.00,,,0.00,WUHU216HW,2013-04-20 12:47:00,
2013-04-20 07:52:00,34.6,25.0,30.13,East,90,3.8,3.8,68,0.00,,,0.00,WUHU216HW,2013-04-20 12:52:00,
2013-04-20 07:57:00,33.1,24.0,30.14,NE,45,2.5,3.8,69,0.00,,,0.00,WUHU216HW,2013-04-20 12:57:00,
2013-04-20 08:02:00,32.8,23.0,30.14,East,90,2.9,4.0,67,0.00,,,0.00,WUHU216HW,2013-04-20 13:02:00,
2013-04-20 08:07:00,32.8,23.3,30.14,ENE,68,4.0,4.0,68,0.00,,,0.00,WUHU216HW,2013-04-20 13:07:00,
2013-04-20 08:12:00,32.8,23.0,30.15,ENE,68,2.0,5.1,67,0.00,,,0.00,WUHU216HW,2013-04-20 13:12:00,
2013-04-20 08:17:00,32.8,23.0,30.15,East,90,2.2,5.1,67,0.00,,,0.00,WUHU216HW,2013-04-20 13:17:00,
2013-04-20 08:22:00,32.8,23.0,30.15,NNE,23,4.0,4.7,67,0.00,,,0.00,WUHU216HW,2013-04-20 13:22:00,
2013-04-20 08:27:00,33.3,23.5,30.15,North,0,2.0,5.1,67,0.00,,,0.00,WUHU216HW,2013-04-20 13:27:00,
2013-04-20 08:32:00,33.7,23.4,30.15,NE,45,3.4,5.1,66,0.00,,,0.00,WUHU216HW,2013-04-20 13:32:00,
2013-04-20 08:37:00,33.5,22.9,30.15,ENE,68,2.7,5.4,65,0.00,,,0.00,WUHU216HW,2013-04-20 13:37:00,
2013-04-20 08:42:00,33.5,22.9,30.15,ESE,113,1.6,5.4,65,0.00,,,0.00,WUHU216HW,2013-04-20 13:42:00,
2013-04-20 08:47:00,33.7,22.7,30.14,ENE,68,3.4,5.4,64,0.00,,,0.00,WUHU216HW,2013-04-20 13:47:00,
2013-04-20 08:52:00,33.1,21.9,30.14,East,90,6.0,6.5,63,0.00,,,0.00,WUHU216HW,2013-04-20 13:52:00,
2013-04-20 08:57:00,32.9,21.7,30.14,NE,45,2.0,6.5,63,0.00,,,0.00,WUHU216HW,2013-04-20 13:57:00,
2013-04-20 09:02:00,32.9,21.7,30.14,SE,135,2.2,6.0,63,0.00,,,0.00,WUHU216HW,2013-04-20 14:02:00,
2013-04-20 09:07:00,33.1,22.2,30.15,East,90,3.1,5.8,64,0.00,,,0.00,WUHU216HW,2013-04-20 14:07:00,
2013-04-20 09:12:00,33.5,22.1,30.15,East,90,0.9,4.7,63,0.00,,,0.00,WUHU216HW,2013-04-20 14:12:00,
2013-04-20 09:17:00,33.3,21.0,30.16,ENE,68,2.9,5.4,60,0.00,,,0.00,WUHU216HW,2013-04-20 14:17:00,
2013-04-20 09:22:00,33.1,20.8,30.16,ESE,113,2.0,5.4,60,0.00,,,0.00,WUHU216HW,2013-04-20 14:22:00,
2013-04-20 09:27:00,33.1,20.3,30.16,NE,45,3.1,4.0,59,0.00,,,0.00,WUHU216HW,2013-04-20 14:27:00,
2013-04-20 09:32:00,33.1,20.3,30.16,East,90,1.1,3.8,59,0.00,,,0.00,WUHU216HW,2013-04-20 14:32:00,
2013-04-20 09:37:00,33.1,19.9,30.17,East,90,1.1,4.0,58,0.00,,,0.00,WUHU216HW,2013-04-20 14:37:00,
2013-04-20 09:42:00,33.5,20.7,30.17,East,90,0.9,4.0,59,0.00,,,0.00,WUHU216HW,2013-04-20 14:42:00,
2013-04-20 09:47:00,33.7,20.4,30.17,ENE,68,1.8,3.6,58,0.00,,,0.00,WUHU216HW,2013-04-20 14:47:00,
2013-04-20 09:52:00,33.7,20.8,30.17,ESE,113,1.8,3.4,59,0.00,,,0.00,WUHU216HW,2013-04-20 14:52:00,
2013-04-20 09:57:00,34.2,20.1,30.17,East,90,2.7,4.7,56,0.00,,,0.00,WUHU216HW,2013-04-20 14:57:00,
2013-04-20 10:02:00,34.7,21.1,30.16,East,90,3.4,4.7,57,0.00,,,0.00,WUHU216HW,2013-04-20 15:02:00,
2013-04-20 10:07:00,34.6,20.4,30.16,East,90,3.8,3.8,56,0.00,,,0.00,WUHU216HW,2013-04-20 15:07:00,
2013-04-20 10:12:00,34.4,20.3,30.17,ENE,68,2.0,4.5,56,0.00,,,0.00,WUHU216HW,2013-04-20 15:12:00,
2013-04-20 10:17:00,34.0,20.4,30.17,SE,135,1.1,4.5,57,0.00,,,0.00,WUHU216HW,2013-04-20 15:17:00,
2013-04-20 10:22:00,34.2,20.9,30.17,SSE,158,1.3,4.0,58,0.00,,,0.00,WUHU216HW,2013-04-20 15:22:00,
2013-04-20 10:27:00,34.6,21.2,30.17,East,90,2.2,4.0,58,0.00,,,0.00,WUHU216HW,2013-04-20 15:27:00,
2013-04-20 10:32:00,35.3,22.0,30.17,East,90,3.4,4.7,58,0.00,,,0.00,WUHU216HW,2013-04-20 15:32:00,
2013-04-20 10:37:00,36.0,23.1,30.17,South,180,1.8,4.7,59,0.00,,,0.00,WUHU216HW,2013-04-20 15:37:00,
2013-04-20 10:42:00,36.9,23.5,30.18,ESE,113,3.1,4.0,58,0.00,,,0.00,WUHU216HW,2013-04-20 15:42:00,
2013-04-20 10:47:00,37.1,23.7,30.17,East,90,2.2,3.8,58,0.00,,,0.00,WUHU216HW,2013-04-20 15:47:00,
2013-04-20 10:52:00,37.4,23.6,30.17,ENE,68,2.9,3.8,57,0.00,,,0.00,WUHU216HW,2013-04-20 15:52:00,
2013-04-20 10:57:00,37.8,23.4,30.18,SE,135,1.8,4.0,56,0.00,,,0.00,WUHU216HW,2013-04-20 15:57:00,
2013-04-20 11:02:00,38.0,23.6,30.18,SSE,158,2.0,5.4,56,0.00,,,0.00,WUHU216HW,2013-04-20 16:02:00,
2013-04-20 11:07:00,38.9,23.6,30.18,East,90,1.8,5.4,54,0.00,,,0.00,WUHU216HW,2013-04-20 16:07:00,
2013-04-20 11:12:00,40.0,24.1,30.18,SSE,158,3.1,4.0,53,0.00,,,0.00,WUHU216HW,2013-04-20 16:12:00,
2013-04-20 11:17:00,41.2,25.8,30.19,ESE,113,1.3,4.0,54,0.00,,,0.00,WUHU216HW,2013-04-20 16:17:00,
2013-04-20 11:22:00,40.9,24.5,30.18,East,90,1.1,4.0,52,0.00,,,0.00,WUHU216HW,2013-04-20 16:22:00,
2013-04-20 11:27:00,41.4,25.5,30.18,East,90,2.0,3.4,53,0.00,,,0.00,WUHU216HW,2013-04-20 16:27:00,
2013-04-20 11:32:00,41.8,25.4,30.18,South,180,1.1,3.4,52,0.00,,,0.00,WUHU216HW,2013-04-20 16:32:00,
2013-04-20 11:37:00,42.3,25.5,30.18,NE,45,3.6,3.6,51,0.00,,,0.00,WUHU216HW,2013-04-20 16:37:00,
2013-04-20 11:42:00,41.9,24.1,30.18,ENE,68,6.0,6.0,49,0.00,,,0.00,WUHU216HW,2013-04-20 16:42:00,
2013-04-20 11:47:00,40.1,21.4,30.18,ENE,68,4.5,6.0,47,0.00,,,0.00,WUHU216HW,2013-04-20 16:47:00,
2013-04-20 11:52:00,40.7,22.4,30.18,SE,135,1.3,6.0,48,0.00,,,0.00,WUHU216HW,2013-04-20 16:52:00,
2013-04-20 11:57:00,42.3,25.0,30.17,SSE,158,3.6,4.5,50,0.00,,,0.00,WUHU216HW,2013-04-20 16:57:00,
2013-04-20 12:02:00,43.4,24.9,30.17,SSE,158,1.8,5.6,48,0.00,,,0.00,WUHU216HW,2013-04-20 17:02:00,
2013-04-20 12:07:00,43.6,23.5,30.16,SE,135,5.1,5.6,45,0.00,,,0.00,WUHU216HW,2013-04-20 17:07:00,
2013-04-20 12:12:00,43.4,24.4,30.16,SSW,203,1.3,5.4,47,0.00,,,0.00,WUHU216HW,2013-04-20 17:12:00,
2013-04-20 12:17:00,43.2,23.2,30.16,South,180,2.5,5.6,45,0.00,,,0.00,WUHU216HW,2013-04-20 17:17:00,
2013-04-20 12:22:00,44.3,23.6,30.16,ENE,68,4.9,6.3,44,0.00,,,0.00,WUHU216HW,2013-04-20 17:22:00,
2013-04-20 12:27:00,42.8,22.3,30.15,ESE,113,5.4,6.3,44,0.00,,,0.00,WUHU216HW,2013-04-20 17:27:00,
2013-04-20 12:32:00,43.0,23.6,30.15,SE,135,2.5,6.3,46,0.00,,,0.00,WUHU216HW,2013-04-20 17:32:00,
2013-04-20 12:37:00,43.7,23.1,30.15,East,90,5.4,6.3,44,0.00,,,0.00,WUHU216HW,2013-04-20 17:37:00,
2013-04-20 12:42:00,42.8,22.9,30.15,ESE,113,4.0,6.7,45,0.00,,,0.00,WUHU216HW,2013-04-20 17:42:00,
2013-04-20 12:47:00,43.6,24.6,30.15,South,180,2.5,6.7,47,0.00,,,0.00,WUHU216HW,2013-04-20 17:47:00,
2013-04-20 12:52:00,44.5,25.4,30.14,East,90,4.0,4.9,47,0.00,,,0.00,WUHU216HW,2013-04-20 17:52:00,
2013-04-20 12:57:00,44.5,24.3,30.14,SSW,203,2.9,4.9,45,0.00,,,0.00,WUHU216HW,2013-04-20 17:57:00,
2013-04-20 13:02:00,45.2,24.4,30.14,ESE,113,2.5,5.1,44,0.00,,,0.00,WUHU216HW,2013-04-20 18:02:00,
2013-04-20 13:07:00,45.2,23.9,30.14,East,90,2.0,6.3,43,0.00,,,0.00,WUHU216HW,2013-04-20 18:07:00,
2013-04-20 13:12:00,44.8,24.1,30.14,East,90,5.4,6.3,44,0.00,,,0.00,WUHU216HW,2013-04-20 18:12:00,
2013-04-20 13:17:00,45.0,24.3,30.14,East,90,4.7,5.4,44,0.00,,,0.00,WUHU216HW,2013-04-20 18:17:00,
2013-04-20 13:22:00,44.8,23.6,30.13,East,90,2.7,4.7,43,0.00,,,0.00,WUHU216HW,2013-04-20 18:22:00,
2013-04-20 13:27:00,45.0,23.8,30.13,SSW,203,4.0,4.7,43,0.00,,,0.00,WUHU216HW,2013-04-20 18:27:00,
2013-04-20 13:32:00,44.8,23.1,30.14,SSE,158,3.1,5.4,42,0.00,,,0.00,WUHU216HW,2013-04-20 18:32:00,
2013-04-20 13:37:00,44.5,22.7,30.14,ESE,113,2.5,5.4,42,0.00,,,0.00,WUHU216HW,2013-04-20 18:37:00,
2013-04-20 13:42:00,44.5,22.7,30.13,ESE,113,1.8,5.4,42,0.00,,,0.00,WUHU216HW,2013-04-20 18:42:00,
2013-04-20 13:47:00,44.5,22.1,30.13,SE,135,3.1,5.4,41,0.00,,,0.00,WUHU216HW,2013-04-20 18:47:00,
2013-04-20 13:52:00,45.5,24.2,30.13,WSW,248,3.6,4.9,43,0.00,,,0.00,WUHU216HW,2013-04-20 18:52:00,
2013-04-20 13:57:00,46.4,23.4,30.13,ESE,113,2.9,6.3,40,0.00,,,0.00,WUHU216HW,2013-04-20 18:57:00,
2013-04-20 14:02:00,46.4,22.8,30.12,SSE,158,1.8,6.3,39,0.00,,,0.00,WUHU216HW,2013-04-20 19:02:00,
2013-04-20 14:07:00,46.1,23.0,30.12,ESE,113,2.5,5.4,40,0.00,,,0.00,WUHU216HW,2013-04-20 19:07:00,
2013-04-20 14:12:00,46.6,24.7,30.12,East,90,2.0,5.4,42,0.00,,,0.00,WUHU216HW,2013-04-20 19:12:00,
2013-04-20 14:17:00,47.0,24.4,30.12,ESE,113,1.3,5.8,41,0.00,,,0.00,WUHU216HW,2013-04-20 19:17:00,
2013-04-20 14:22:00,47.3,24.2,30.12,NE,45,6.5,6.5,40,0.00,,,0.00,WUHU216HW,2013-04-20 19:22:00,
2013-04-20 14:27:00,47.0,23.2,30.11,East,90,4.3,6.5,39,0.00,,,0.00,WUHU216HW,2013-04-20 19:27:00,
2013-04-20 14:32:00,46.8,23.0,30.11,ESE,113,3.1,6.5,39,0.00,,,0.00,WUHU216HW,2013-04-20 19:32:00,
2013-04-20 14:37:00,46.8,22.4,30.11,East,90,4.7,6.3,38,0.00,,,0.00,WUHU216HW,2013-04-20 19:37:00,
2013-04-20 14:42:00,47.0,23.2,30.11,East,90,4.0,6.3,39,0.00,,,0.00,WUHU216HW,2013-04-20 19:42:00,
2013-04-20 14:47:00,47.5,24.4,30.11,SSW,203,1.1,6.0,40,0.00,,,0.00,WUHU216HW,2013-04-20 19:47:00,
2013-04-20 14:52:00,48.1,24.2,30.11,East,90,4.7,6.0,39,0.00,,,0.00,WUHU216HW,2013-04-20 19:52:00,
2013-04-20 14:57:00,48.6,24.7,30.10,SSE,158,2.5,6.3,39,0.00,,,0.00,WUHU216HW,2013-04-20 19:57:00,
2013-04-20 15:02:00,48.1,23.5,30.10,ENE,68,4.0,6.9,38,0.00,,,0.00,WUHU216HW,2013-04-20 20:02:00,
2013-04-20 15:07:00,48.2,24.4,30.10,ESE,113,4.0,6.9,39,0.00,,,0.00,WUHU216HW,2013-04-20 20:07:00,
2013-04-20 15:12:00,48.6,24.0,30.10,ESE,113,3.8,5.4,38,0.00,,,0.00,WUHU216HW,2013-04-20 20:12:00,
2013-04-20 15:17:00,49.1,25.1,30.10,ESE,113,3.8,5.4,39,0.00,,,0.00,WUHU216HW,2013-04-20 20:17:00,
2013-04-20 15:22:00,49.7,24.9,30.10,East,90,3.6,6.3,38,0.00,,,0.00,WUHU216HW,2013-04-20 20:22:00,
2013-04-20 15:27:00,49.9,25.1,30.10,East,90,3.6,6.3,38,0.00,,,0.00,WUHU216HW,2013-04-20 20:27:00,
2013-04-20 15:32:00,50.0,25.3,30.10,East,90,4.3,6.3,38,0.00,,,0.00,WUHU216HW,2013-04-20 20:32:00,
2013-04-20 15:37:00,50.2,25.5,30.09,East,90,2.9,6.3,38,0.00,,,0.00,WUHU216HW,2013-04-20 20:37:00,
2013-04-20 15:42:00,50.0,25.3,30.09,South,180,2.0,7.2,38,0.00,,,0.00,WUHU216HW,2013-04-20 20:42:00,
2013-04-20 15:47:00,50.0,25.3,30.09,SSW,203,4.3,7.2,38,0.00,,,0.00,WUHU216HW,2013-04-20 20:47:00,
2013-04-20 15:52:00,50.0,25.3,30.09,ESE,113,7.2,7.2,38,0.00,,,0.00,WUHU216HW,2013-04-20 20:52:00,
2013-04-20 15:57:00,49.5,24.1,30.09,ESE,113,1.8,7.2,37,0.00,,,0.00,WUHU216HW,2013-04-20 20:57:00,
2013-04-20 16:02:00,49.5,24.9,30.09,NE,45,5.1,7.2,38,0.00,,,0.00,WUHU216HW,2013-04-20 21:02:00,
2013-04-20 16:07:00,50.0,25.3,30.09,SE,135,1.8,5.4,38,0.00,,,0.00,WUHU216HW,2013-04-20 21:07:00,
2013-04-20 16:12:00,50.0,24.0,30.09,SE,135,4.3,7.4,36,0.00,,,0.00,WUHU216HW,2013-04-20 21:12:00,
2013-04-20 16:17:00,50.0,25.3,30.08,SSE,158,4.5,7.6,38,0.00,,,0.00,WUHU216HW,2013-04-20 21:17:00,
2013-04-20 16:22:00,50.0,24.0,30.09,ESE,113,6.3,7.6,36,0.00,,,0.00,WUHU216HW,2013-04-20 21:22:00,
2013-04-20 16:27:00,49.3,23.9,30.09,ESE,113,4.5,7.4,37,0.00,,,0.00,WUHU216HW,2013-04-20 21:27:00,
2013-04-20 16:32:00,49.3,24.7,30.08,ESE,113,3.4,7.4,38,0.00,,,0.00,WUHU216HW,2013-04-20 21:32:00,
2013-04-20 16:37:00,49.9,24.4,30.08,ESE,113,5.4,8.7,37,0.00,,,0.00,WUHU216HW,2013-04-20 21:37:00,
2013-04-20 16:42:00,50.0,25.3,30.08,SE,135,3.1,8.7,38,0.00,,,0.00,WUHU216HW,2013-04-20 21:42:00,
2013-04-20 16:47:00,50.0,25.3,30.08,WSW,248,4.0,6.9,38,0.00,,,0.00,WUHU216HW,2013-04-20 21:47:00,
2013-04-20 16:52:00,49.9,25.1,30.08,ESE,113,3.6,6.9,38,0.00,,,0.00,WUHU216HW,2013-04-20 21:52:00,
2013-04-20 16:57:00,49.9,25.1,30.07,ESE,113,3.8,8.3,38,0.00,,,0.00,WUHU216HW,2013-04-20 21:57:00,
2013-04-20 17:02:00,49.7,24.9,30.08,East,90,5.8,8.3,38,0.00,,,0.00,WUHU216HW,2013-04-20 22:02:00,
2013-04-20 17:07:00,49.3,24.7,30.07,ESE,113,4.3,7.6,38,0.00,,,0.00,WUHU216HW,2013-04-20 22:07:00,
2013-04-20 17:12:00,50.0,25.9,30.07,East,90,3.1,7.6,39,0.00,,,0.00,WUHU216HW,2013-04-20 22:12:00,
2013-04-20 17:17:00,50.8,27.8,30.07,SE,135,4.3,6.0,41,0.00,,,0.00,WUHU216HW,2013-04-20 22:17:00,
2013-04-20 17:22:00,50.9,27.5,30.07,ESE,113,4.5,6.0,40,0.00,,,0.00,WUHU216HW,2013-04-20 22:22:00,
2013-04-20 17:27:00,50.2,25.5,30.07,ESE,113,4.7,5.8,38,0.00,,,0.00,WUHU216HW,2013-04-20 22:27:00,
2013-04-20 17:33:00,50.0,25.3,30.07,East,90,4.5,8.1,38,0.00,,,0.00,WUHU216HW,2013-04-20 22:33:00,
2013-04-20 17:38:00,49.3,24.7,30.06,ENE,68,3.1,8.3,38,0.00,,,0.00,WUHU216HW,2013-04-20 22:38:00,
2013-04-20 17:43:00,49.1,25.1,30.06,SE,135,3.4,8.3,39,0.01,,,0.00,WUHU216HW,2013-04-20 22:43:00,
2013-04-20 17:48:00,49.0,24.3,30.07,SE,135,3.6,6.9,38,0.01,,,0.00,WUHU216HW,2013-04-20 22:48:00,
2013-04-20 17:53:00,48.6,24.0,30.06,East,90,6.3,7.2,38,0.01,,,0.00,WUHU216HW,2013-04-20 22:53:00,
2013-04-20 17:58:00,48.6,24.0,30.06,East,90,3.4,7.2,38,0.01,,,0.00,WUHU216HW,2013-04-20 22:58:00,
2013-04-20 18:03:00,48.6,24.0,30.06,SE,135,3.4,6.3,38,0.01,,,0.00,WUHU216HW,2013-04-20 23:03:00,
2013-04-20 18:08:00,48.4,23.9,30.06,East,90,4.0,6.3,38,0.01,,,0.00,WUHU216HW,2013-04-20 23:08:00,
2013-04-20 18:13:00,48.2,23.7,30.06,East,90,4.0,7.4,38,0.01,,,0.00,WUHU216HW,2013-04-20 23:13:00,
2013-04-20 18:18:00,47.9,23.4,30.07,SE,135,3.1,7.4,38,0.01,,,0.00,WUHU216HW,2013-04-20 23:18:00,
2013-04-20 18:23:00,47.9,24.0,30.07,East,90,3.1,6.5,39,0.01,,,0.00,WUHU216HW,2013-04-20 23:23:00,
2013-04-20 18:28:00,47.9,24.0,30.07,SSE,158,4.0,6.3,39,0.01,,,0.00,WUHU216HW,2013-04-20 23:28:00,
2013-04-20 18:33:00,47.9,24.7,30.06,South,180,4.0,6.3,40,0.01,,,0.00,WUHU216HW,2013-04-20 23:33:00,
2013-04-20 18:38:00,47.7,24.6,30.06,ENE,68,6.3,6.3,40,0.01,,,0.00,WUHU216HW,2013-04-20 23:38:00,
2013-04-20 18:43:00,47.5,24.4,30.06,East,90,4.0,6.3,40,0.00,,,0.00,WUHU216HW,2013-04-20 23:43:00,
2013-04-20 18:48:00,47.2,24.0,30.06,SSE,158,5.4,6.3,40,0.00,,,0.00,WUHU216HW,2013-04-20 23:48:00,
2013-04-20 18:53:00,47.2,24.0,30.06,East,90,3.1,7.6,40,0.00,,,0.00,WUHU216HW,2013-04-20 23:53:00,
2013-04-20 18:58:00,47.2,24.6,30.06,SSE,158,5.1,7.6,41,0.00,,,0.00,WUHU216HW,2013-04-20 23:58:00,
2013-04-20 19:03:00,46.8,23.8,30.06,NNE,23,3.6,7.8,40,0.00,,,0.00,WUHU216HW,2013-04-21 00:03:00,
2013-04-20 19:08:00,46.8,24.3,30.06,SE,135,3.4,7.8,41,0.00,,,0.00,WUHU216HW,2013-04-21 00:08:00,
2013-04-20 19:13:00,46.6,24.1,30.06,WSW,248,2.9,7.2,41,0.00,,,0.00,WUHU216HW,2013-04-21 00:13:00,
2013-04-20 19:18:00,46.6,24.1,30.05,SE,135,3.4,8.1,41,0.00,,,0.00,WUHU216HW,2013-04-21 00:18:00,
2013-04-20 19:23:00,46.6,24.1,30.05,East,90,5.4,8.1,41,0.00,,,0.00,WUHU216HW,2013-04-21 00:23:00,
2013-04-20 19:28:00,46.6,24.7,30.05,East,90,4.3,7.6,42,0.00,,,0.00,WUHU216HW,2013-04-21 00:28:00,
2013-04-20 19:33:00,46.4,24.5,30.05,SE,135,3.8,9.8,42,0.00,,,0.00,WUHU216HW,2013-04-21 00:33:00,
2013-04-20 19:38:00,46.4,24.5,30.05,East,90,3.1,9.8,42,0.00,,,0.00,WUHU216HW,2013-04-21 00:38:00,
2013-04-20 19:43:00,46.3,24.3,30.05,East,90,2.2,7.2,42,0.00,,,0.00,WUHU216HW,2013-04-21 00:43:00,
2013-04-20 19:48:00,46.3,24.3,30.05,NNW,338,5.8,7.4,42,0.00,,,0.00,WUHU216HW,2013-04-21 00:48:00,
2013-04-20 19:53:00,46.1,24.1,30.05,ESE,113,7.4,11.0,42,0.00,,,0.00,WUHU216HW,2013-04-21 00:53:00,
2013-04-20 19:58:00,45.9,24.6,30.05,East,90,2.5,11.0,43,0.00,,,0.00,WUHU216HW,2013-04-21 00:58:00,
2013-04-20 20:03:00,45.7,24.9,30.05,East,90,3.1,7.6,44,0.00,,,0.00,WUHU216HW,2013-04-21 01:03:00,
2013-04-20 20:08:00,45.7,24.9,30.05,ESE,113,8.1,8.5,44,0.00,,,0.00,WUHU216HW,2013-04-21 01:08:00,
2013-04-20 20:13:00,45.7,25.5,30.06,ESE,113,4.0,8.5,45,0.00,,,0.00,WUHU216HW,2013-04-21 01:13:00,
2013-04-20 20:18:00,45.7,25.5,30.06,SSW,203,2.5,8.1,45,0.00,,,0.00,WUHU216HW,2013-04-21 01:18:00,
2013-04-20 20:23:00,45.5,25.3,30.06,NE,45,4.0,6.0,45,0.00,,,0.00,WUHU216HW,2013-04-21 01:23:00,
2013-04-20 20:28:00,45.4,25.1,30.06,East,90,3.8,5.4,45,0.00,,,0.00,WUHU216HW,2013-04-21 01:28:00,
2013-04-20 20:33:00,45.4,25.7,30.06,East,90,4.5,5.4,46,0.00,,,0.00,WUHU216HW,2013-04-21 01:33:00,
2013-04-20 20:38:00,45.4,25.7,30.07,ESE,113,2.7,6.0,46,0.00,,,0.00,WUHU216HW,2013-04-21 01:38:00,
2013-04-20 20:43:00,45.2,25.5,30.07,ESE,113,4.5,6.0,46,0.00,,,0.00,WUHU216HW,2013-04-21 01:43:00,
2013-04-20 20:48:00,45.2,25.5,30.07,SSE,158,1.1,4.7,46,0.00,,,0.00,WUHU216HW,2013-04-21 01:48:00,
2013-04-20 20:53:00,45.0,25.9,30.07,SSE,158,1.8,4.5,47,0.00,,,0.00,WUHU216HW,2013-04-21 01:53:00,
2013-04-20 20:58:00,44.8,25.8,30.07,ESE,113,2.2,4.0,47,0.00,,,0.00,WUHU216HW,2013-04-21 01:58:00,
2013-04-20 21:03:00,44.8,25.8,30.07,ESE,113,1.3,5.1,47,0.00,,,0.00,WUHU216HW,2013-04-21 02:03:00,
2013-04-20 21:08:00,44.6,25.6,30.08,East,90,2.7,5.1,47,0.00,,,0.00,WUHU216HW,2013-04-21 02:08:00,
2013-04-20 21:13:00,44.6,25.6,30.07,SE,135,1.8,7.2,47,0.00,,,0.00,WUHU216HW,2013-04-21 02:13:00,
2013-04-20 21:18:00,44.6,26.1,30.07,East,90,4.5,7.2,48,0.00,,,0.00,WUHU216HW,2013-04-21 02:18:00,
2013-04-20 21:23:00,44.6,26.1,30.07,ESE,113,4.3,7.2,48,0.00,,,0.00,WUHU216HW,2013-04-21 02:23:00,
2013-04-20 21:28:00,44.5,25.9,30.07,SE,135,4.3,7.2,48,0.00,,,0.00,WUHU216HW,2013-04-21 02:28:00,
2013-04-20 21:33:00,44.5,25.9,30.07,SSE,158,4.3,5.6,48,0.00,,,0.00,WUHU216HW,2013-04-21 02:33:00,
2013-04-20 21:38:00,44.6,26.1,30.07,East,90,2.5,6.3,48,0.00,,,0.00,WUHU216HW,2013-04-21 02:38:00,
2013-04-20 21:43:00,44.6,26.1,30.08,ESE,113,2.2,6.3,48,0.00,,,0.00,WUHU216HW,2013-04-21 02:43:00,
2013-04-20 21:48:00,44.8,26.3,30.07,SE,135,4.5,6.5,48,0.00,,,0.00,WUHU216HW,2013-04-21 02:48:00,
2013-04-20 21:53:00,44.8,26.3,30.07,SE,135,4.5,6.7,48,0.00,,,0.00,WUHU216HW,2013-04-21 02:53:00,
2013-04-20 21:58:00,44.8,26.8,30.07,SSE,158,3.4,6.7,49,0.00,,,0.00,WUHU216HW,2013-04-21 02:58:00,
2013-04-20 22:03:00,45.0,27.0,30.07,SE,135,2.5,6.7,49,0.00,,,0.00,WUHU216HW,2013-04-21 03:03:00,
2013-04-20 22:08:00,45.0,27.0,30.08,East,90,7.2,7.2,49,0.00,,,0.00,WUHU216HW,2013-04-21 03:08:00,
2013-04-20 22:13:00,45.0,27.0,30.07,ESE,113,5.8,7.2,49,0.00,,,0.00,WUHU216HW,2013-04-21 03:13:00,
2013-04-20 22:18:00,45.0,27.0,30.07,ESE,113,3.1,7.2,49,0.00,,,0.00,WUHU216HW,2013-04-21 03:18:00,
2013-04-20 22:23:00,45.0,27.6,30.07,SE,135,4.7,6.3,50,0.00,,,0.00,WUHU216HW,2013-04-21 03:23:00,
2013-04-20 22:28:00,44.8,27.4,30.07,SSE,158,3.4,6.0,50,0.00,,,0.00,WUHU216HW,2013-04-21 03:28:00,
2013-04-20 22:33:00,44.8,27.4,30.07,South,180,2.0,5.4,50,0.00,,,0.00,WUHU216HW,2013-04-21 03:33:00,
2013-04-20 22:38:00,44.6,27.6,30.07,West,270,4.7,5.4,51,0.00,,,0.00,WUHU216HW,2013-04-21 03:38:00,
2013-04-20 22:43:00,44.6,27.6,30.07,SSE,158,2.5,5.4,51,0.00,,,0.00,WUHU216HW,2013-04-21 03:43:00,
2013-04-20 22:48:00,44.6,27.6,30.08,SSW,203,3.6,5.4,51,0.00,,,0.00,WUHU216HW,2013-04-21 03:48:00,
2013-04-20 22:53:00,45.0,28.0,30.07,ESE,113,2.7,4.9,51,0.00,,,0.00,WUHU216HW,2013-04-21 03:53:00,
2013-04-20 22:58:00,45.0,28.0,30.06,ENE,68,3.4,6.9,51,0.00,,,0.00,WUHU216HW,2013-04-21 03:58:00,
2013-04-20 23:01:00,45.0,28.0,30.06,ESE,113,5.8,6.9,51,0.00,,,0.00,WUHU216HW,2013-04-21 04:01:00,
2013-04-20 23:02:00,45.0,28.0,30.06,South,180,4.3,6.9,51,0.00,,,0.00,WUHU216HW,2013-04-21 04:02:00,
2013-04-20 23:07:00,45.2,28.1,30.06,ESE,113,4.9,6.9,51,0.00,,,0.00,WUHU216HW,2013-04-21 04:07:00,
2013-04-20 23:12:00,45.2,28.1,30.06,South,180,3.4,8.9,51,0.00,,,0.00,WUHU216HW,2013-04-21 04:12:00,
2013-04-20 23:17:00,45.2,28.1,30.06,East,90,2.2,8.9,51,0.00,,,0.00,WUHU216HW,2013-04-21 04:17:00,
2013-04-20 23:22:00,45.2,28.5,30.07,East,90,2.2,6.3,52,0.00,,,0.00,WUHU216HW,2013-04-21 04:22:00,
2013-04-20 23:27:00,45.2,28.5,30.07,SE,135,1.1,6.3,52,0.00,,,0.00,WUHU216HW,2013-04-21 04:27:00,
2013-04-20 23:32:00,45.0,28.5,30.07,East,90,1.3,4.3,52,0.00,,,0.00,WUHU216HW,2013-04-21 04:32:00,
2013-04-20 23:37:00,45.0,28.5,30.07,SE,135,0.4,3.1,52,0.00,,,0.00,WUHU216HW,2013-04-21 04:37:00,
2013-04-20 23:42:00,45.0,28.5,30.07,East,90,1.6,2.2,52,0.00,,,0.00,WUHU216HW,2013-04-21 04:42:00,
2013-04-20 23:47:00,45.0,28.9,30.08,East,90,1.3,3.6,53,0.00,,,0.00,WUHU216HW,2013-04-21 04:47:00,
2013-04-20 23:52:00,45.0,28.9,30.07,SE,135,0.4,3.6,53,0.00,,,0.00,WUHU216HW,2013-04-21 04:52:00,
2013-04-20 23:57:00,45.0,28.9,30.07,ESE,113,1.8,2.7,53,0.00,,,0.00,WUHU216HW,2013-04-21 04:57:00,